Time,TemperatureF,DewpointF,PressureIn,WindDirection,WindDirectionDegrees,WindSpeedMPH,WindSpeedGustMPH,Humidity,HourlyPrecipIn,Conditions,Clouds,dailyrainin,SoftwareType,DateUTC
2013-07-21 00:09:00,52.3,51.0,29.79,West,259,13.0,18.0,96,0.00,,,0.00,weatherlink.com 1.10,2013-07-21 07:09:00,
2013-07-21 00:24:00,52.5,51.0,29.79,South,190,13.0,18.0,96,0.00,,,0.00,weatherlink.com 1.10,2013-07-21 07:24:00,
2013-07-21 00:39:00,52.4,51.0,29.79,SSW,209,13.0,17.0,96,0.00,,,0.00,weatherlink.com 1.10,2013-07-21 07:39:00,
2013-07-21 00:55:00,52.5,51.0,29.79,SSW,205,7.0,17.0,96,0.00,,,0.00,weatherlink.com 1.10,2013-07-21 07:55:00,
2013-07-21 01:10:00,52.6,52.0,29.78,South,170,14.0,17.0,96,0.00,,,0.00,weatherlink.com 1.10,2013-07-21 08:10:00,
2013-07-21 01:25:00,52.7,52.0,29.79,SSW,195,8.0,14.0,96,0.00,,,0.00,weatherlink.com 1.10,2013-07-21 08:25:00,
2013-07-21 01:40:00,52.8,52.0,29.78,SSW,208,15.0,15.0,96,0.00,,,0.00,weatherlink.com 1.10,2013-07-21 08:40:00,
2013-07-21 01:55:00,52.8,52.0,29.78,SW,228,9.0,14.0,96,0.00,,,0.00,weatherlink.com 1.10,2013-07-21 08:55:00,
2013-07-21 02:10:00,52.8,52.0,29.78,South,170,8.0,14.0,96,0.00,,,0.00,weatherlink.com 1.10,2013-07-21 09:10:00,
2013-07-21 02:25:00,52.8,52.0,29.77,SSW,195,8.0,16.0,96,0.00,,,0.00,weatherlink.com 1.10,2013-07-21 09:25:00,
2013-07-21 02:40:00,52.9,52.0,29.77,SW,218,7.0,16.0,96,0.00,,,0.00,weatherlink.com 1.10,2013-07-21 09:40:00,
2013-07-21 02:55:00,53.1,52.0,29.77,SSE,158,6.0,15.0,96,0.00,,,0.00,weatherlink.com 1.10,2013-07-21 09:55:00,
2013-07-21 03:10:00,53.0,52.0,29.77,SSW,212,11.0,15.0,96,0.00,,,0.00,weatherlink.com 1.10,2013-07-21 10:10:00,
2013-07-21 03:25:00,53.0,52.0,29.77,SW,219,11.0,15.0,96,0.00,,,0.00,weatherlink.com 1.10,2013-07-21 10:25:00,
2013-07-21 03:40:00,53.2,52.0,29.77,SSW,212,9.0,14.0,96,0.00,,,0.00,weatherlink.com 1.10,2013-07-21 10:40:00,
2013-07-21 03:55:00,53.1,52.0,29.77,SSW,194,5.0,14.0,96,0.00,,,0.00,weatherlink.com 1.10,2013-07-21 10:55:00,
2013-07-21 04:10:00,53.2,52.0,29.76,SSW,200,9.0,15.0,96,0.00,,,0.00,weatherlink.com 1.10,2013-07-21 11:10:00,
2013-07-21 04:25:00,53.3,52.0,29.77,SSW,204,7.0,15.0,96,0.00,,,0.00,weatherlink.com 1.10,2013-07-21 11:25:00,
2013-07-21 04:40:00,53.3,52.0,29.76,SSW,195,5.0,12.0,96,0.00,,,0.00,weatherlink.com 1.10,2013-07-21 11:40:00,
2013-07-21 04:55:00,53.2,52.0,29.77,SW,217,6.0,12.0,96,0.00,,,0.00,weatherlink.com 1.10,2013-07-21 11:55:00,
2013-07-21 05:10:00,53.3,52.0,29.77,WSW,257,11.0,11.0,96,0.00,,,0.00,weatherlink.com 1.10,2013-07-21 12:10:00,
2013-07-21 05:25:00,53.3,52.0,29.77,South,188,8.0,13.0,96,0.00,,,0.00,weatherlink.com 1.10,2013-07-21 12:25:00,
2013-07-21 05:40:00,53.3,52.0,29.78,South,188,7.0,11.0,96,0.00,,,0.00,weatherlink.com 1.10,2013-07-21 12:40:00,
2013-07-21 05:55:00,53.4,52.0,29.78,South,177,5.0,13.0,96,0.00,,,0.00,weatherlink.com 1.10,2013-07-21 12:55:00,
2013-07-21 06:10:00,53.3,52.0,29.79,SSW,194,6.0,11.0,96,0.00,,,0.00,weatherlink.com 1.10,2013-07-21 13:10:00,
2013-07-21 06:25:00,53.2,52.0,29.79,SW,218,6.0,10.0,96,0.00,,,0.00,weatherlink.com 1.10,2013-07-21 13:25:00,
2013-07-21 06:40:00,53.2,52.0,29.79,SW,233,9.0,11.0,96,0.00,,,0.00,weatherlink.com 1.10,2013-07-21 13:40:00,
2013-07-21 06:55:00,53.2,52.0,29.79,WSW,245,7.0,11.0,96,0.00,,,0.00,weatherlink.com 1.10,2013-07-21 13:55:00,
2013-07-21 07:10:00,53.2,52.0,29.79,SW,220,5.0,13.0,96,0.00,,,0.00,weatherlink.com 1.10,2013-07-21 14:10:00,
2013-07-21 07:25:00,53.0,52.0,29.80,SSW,193,6.0,14.0,96,0.00,,,0.00,weatherlink.com 1.10,2013-07-21 14:25:00,
2013-07-21 07:40:00,53.1,52.0,29.80,SSW,210,13.0,13.0,96,0.00,,,0.00,weatherlink.com 1.10,2013-07-21 14:40:00,
2013-07-21 07:55:00,53.1,52.0,29.81,SW,219,10.0,15.0,96,0.00,,,0.00,weatherlink.com 1.10,2013-07-21 14:55:00,
2013-07-21 08:10:00,53.2,52.0,29.81,SW,236,5.0,12.0,96,0.00,,,0.00,weatherlink.com 1.10,2013-07-21 15:10:00,
2013-07-21 08:25:00,53.3,52.0,29.81,SW,235,5.0,13.0,96,0.00,,,0.00,weatherlink.com 1.10,2013-07-21 15:25:00,
2013-07-21 08:40:00,53.6,53.0,29.82,West,280,6.0,12.0,96,0.00,,,0.00,weatherlink.com 1.10,2013-07-21 15:40:00,
2013-07-21 08:55:00,53.8,53.0,29.82,SSW,207,5.0,13.0,96,0.00,,,0.00,weatherlink.com 1.10,2013-07-21 15:55:00,
2013-07-21 09:10:00,54.2,53.0,29.82,South,173,8.0,12.0,96,0.00,,,0.00,weatherlink.com 1.10,2013-07-21 16:10:00,
2013-07-21 09:25:00,53.9,53.0,29.82,SW,232,9.0,14.0,95,0.00,,,0.00,weatherlink.com 1.10,2013-07-21 16:25:00,
2013-07-21 09:40:00,54.1,53.0,29.82,South,189,10.0,15.0,95,0.00,,,0.00,weatherlink.com 1.10,2013-07-21 16:40:00,
2013-07-21 09:55:00,54.1,53.0,29.82,WSW,255,12.0,19.0,95,0.00,,,0.00,weatherlink.com 1.10,2013-07-21 16:55:00,
2013-07-21 10:10:00,54.3,53.0,29.82,SSW,201,5.0,16.0,94,0.00,,,0.00,weatherlink.com 1.10,2013-07-21 17:10:00,
2013-07-21 10:25:00,54.3,53.0,29.83,SW,231,18.0,18.0,94,0.00,,,0.00,weatherlink.com 1.10,2013-07-21 17:25:00,
2013-07-21 10:40:00,54.4,53.0,29.83,South,186,6.0,16.0,94,0.00,,,0.00,weatherlink.com 1.10,2013-07-21 17:40:00,
2013-07-21 10:55:00,54.4,53.0,29.83,SSW,212,9.0,16.0,94,0.00,,,0.00,weatherlink.com 1.10,2013-07-21 17:55:00,
2013-07-21 11:10:00,54.7,53.0,29.83,South,179,7.0,16.0,93,0.00,,,0.00,weatherlink.com 1.10,2013-07-21 18:10:00,
2013-07-21 11:25:00,54.9,53.0,29.84,SW,218,12.0,16.0,93,0.00,,,0.00,weatherlink.com 1.10,2013-07-21 18:25:00,
2013-07-21 11:40:00,55.0,53.0,29.84,WSW,252,13.0,15.0,93,0.00,,,0.00,weatherlink.com 1.10,2013-07-21 18:40:00,
2013-07-21 11:55:00,55.0,53.0,29.84,SSW,200,11.0,16.0,92,0.00,,,0.00,weatherlink.com 1.10,2013-07-21 18:55:00,
2013-07-21 12:10:00,55.6,53.0,29.83,SSW,193,7.0,16.0,92,0.00,,,0.00,weatherlink.com 1.10,2013-07-21 19:10:00,
2013-07-21 12:26:00,56.0,54.0,29.83,SW,226,6.0,18.0,91,0.00,,,0.00,weatherlink.com 1.10,2013-07-21 19:26:00,
2013-07-21 12:41:00,56.3,54.0,29.83,SSW,199,10.0,15.0,90,0.00,,,0.00,weatherlink.com 1.10,2013-07-21 19:41:00,
2013-07-21 12:56:00,56.8,54.0,29.82,SW,236,6.0,15.0,90,0.00,,,0.00,weatherlink.com 1.10,2013-07-21 19:56:00,
2013-07-21 13:11:00,57.4,54.0,29.82,SE,146,4.0,13.0,89,0.00,,,0.00,weatherlink.com 1.10,2013-07-21 20:11:00,
2013-07-21 13:26:00,57.8,54.0,29.82,SSE,147,8.0,17.0,88,0.00,,,0.00,weatherlink.com 1.10,2013-07-21 20:26:00,
2013-07-21 13:41:00,58.0,54.0,29.82,SSW,201,8.0,14.0,87,0.00,,,0.00,weatherlink.com 1.10,2013-07-21 20:41:00,
2013-07-21 13:56:00,58.7,55.0,29.82,SSW,197,7.0,18.0,87,0.00,,,0.00,weatherlink.com 1.10,2013-07-21 20:56:00,
2013-07-21 14:11:00,59.2,55.0,29.82,SE,128,9.0,17.0,86,0.00,,,0.00,weatherlink.com 1.10,2013-07-21 21:11:00,
2013-07-21 14:26:00,59.5,55.0,29.81,SW,215,8.0,14.0,84,0.00,,,0.00,weatherlink.com 1.10,2013-07-21 21:26:00,
2013-07-21 14:41:00,59.9,55.0,29.81,WSW,242,8.0,16.0,83,0.00,,,0.00,weatherlink.com 1.10,2013-07-21 21:41:00,
2013-07-21 14:56:00,59.8,55.0,29.81,SSE,152,7.0,17.0,83,0.00,,,0.00,weatherlink.com 1.10,2013-07-21 21:56:00,
2013-07-21 15:11:00,60.2,55.0,29.81,SSW,200,10.0,14.0,82,0.00,,,0.00,weatherlink.com 1.10,2013-07-21 22:11:00,
2013-07-21 15:26:00,60.2,55.0,29.80,SW,235,9.0,15.0,83,0.00,,,0.00,weatherlink.com 1.10,2013-07-21 22:26:00,
2013-07-21 15:41:00,60.6,55.0,29.80,WSW,238,8.0,15.0,81,0.00,,,0.00,weatherlink.com 1.10,2013-07-21 22:41:00,
2013-07-21 15:56:00,60.2,55.0,29.80,South,181,9.0,15.0,82,0.00,,,0.00,weatherlink.com 1.10,2013-07-21 22:56:00,
2013-07-21 16:11:00,60.1,54.0,29.80,SSW,194,5.0,16.0,81,0.00,,,0.00,weatherlink.com 1.10,2013-07-21 23:11:00,
2013-07-21 16:26:00,59.8,55.0,29.79,SSW,212,7.0,15.0,83,0.00,,,0.00,weatherlink.com 1.10,2013-07-21 23:26:00,
2013-07-21 16:41:00,59.9,54.0,29.79,SSW,195,7.0,15.0,82,0.00,,,0.00,weatherlink.com 1.10,2013-07-21 23:41:00,
2013-07-21 16:56:00,60.0,54.0,29.79,South,189,6.0,17.0,81,0.00,,,0.00,weatherlink.com 1.10,2013-07-21 23:56:00,
2013-07-21 17:11:00,59.3,55.0,29.79,NNE,29,9.0,16.0,84,0.00,,,0.00,weatherlink.com 1.10,2013-07-22 00:11:00,
2013-07-21 17:26:00,58.6,54.0,29.79,SSW,195,14.0,21.0,84,0.00,,,0.00,weatherlink.com 1.10,2013-07-22 00:26:00,
2013-07-21 17:41:00,58.5,54.0,29.79,SSW,202,7.0,19.0,86,0.00,,,0.00,weatherlink.com 1.10,2013-07-22 00:41:00,
2013-07-21 17:56:00,58.5,54.0,29.79,SSW,200,7.0,19.0,86,0.00,,,0.00,weatherlink.com 1.10,2013-07-22 00:56:00,
2013-07-21 18:11:00,57.5,54.0,29.79,SW,219,13.0,18.0,87,0.00,,,0.00,weatherlink.com 1.10,2013-07-22 01:11:00,
2013-07-21 18:26:00,56.8,53.0,29.79,West,267,5.0,18.0,88,0.00,,,0.00,weatherlink.com 1.10,2013-07-22 01:26:00,
2013-07-21 18:41:00,56.1,53.0,29.80,SW,216,14.0,20.0,89,0.00,,,0.00,weatherlink.com 1.10,2013-07-22 01:41:00,
2013-07-21 18:56:00,55.6,53.0,29.80,SSW,194,14.0,20.0,90,0.00,,,0.00,weatherlink.com 1.10,2013-07-22 01:56:00,
2013-07-21 19:11:00,55.2,53.0,29.80,South,177,12.0,19.0,92,0.00,,,0.00,weatherlink.com 1.10,2013-07-22 02:11:00,
2013-07-21 19:26:00,55.8,54.0,29.81,SSW,201,17.0,19.0,92,0.00,,,0.00,weatherlink.com 1.10,2013-07-22 02:26:00,
2013-07-21 19:41:00,55.7,53.0,29.81,SSW,207,10.0,16.0,91,0.00,,,0.00,weatherlink.com 1.10,2013-07-22 02:41:00,
2013-07-21 19:56:00,55.5,53.0,29.81,SSW,207,13.0,20.0,92,0.00,,,0.00,weatherlink.com 1.10,2013-07-22 02:56:00,
2013-07-21 20:11:00,55.0,53.0,29.82,SSE,168,9.0,19.0,92,0.00,,,0.00,weatherlink.com 1.10,2013-07-22 03:11:00,
2013-07-21 20:26:00,54.9,53.0,29.82,SSE,153,12.0,15.0,93,0.00,,,0.00,weatherlink.com 1.10,2013-07-22 03:26:00,
2013-07-21 20:41:00,54.7,53.0,29.82,South,186,11.0,16.0,94,0.00,,,0.00,weatherlink.com 1.10,2013-07-22 03:41:00,
2013-07-21 20:56:00,54.5,53.0,29.82,South,191,7.0,17.0,94,0.00,,,0.00,weatherlink.com 1.10,2013-07-22 03:56:00,
2013-07-21 21:11:00,54.2,53.0,29.83,SSE,159,9.0,15.0,94,0.00,,,0.00,weatherlink.com 1.10,2013-07-22 04:11:00,
2013-07-21 21:26:00,54.1,53.0,29.84,ESE,108,9.0,19.0,94,0.00,,,0.00,weatherlink.com 1.10,2013-07-22 04:26:00,
2013-07-21 21:41:00,54.1,53.0,29.84,South,190,7.0,15.0,95,0.00,,,0.00,weatherlink.com 1.10,2013-07-22 04:41:00,
2013-07-21 21:56:00,54.0,53.0,29.85,SSE,162,9.0,15.0,95,0.00,,,0.00,weatherlink.com 1.10,2013-07-22 04:56:00,
2013-07-21 22:11:00,53.9,53.0,29.86,SSE,159,7.0,14.0,95,0.00,,,0.00,weatherlink.com 1.10,2013-07-22 05:11:00,
2013-07-21 22:26:00,54.0,53.0,29.86,SSW,205,6.0,16.0,95,0.00,,,0.00,weatherlink.com 1.10,2013-07-22 05:26:00,
2013-07-21 22:41:00,53.9,53.0,29.86,SSE,149,11.0,14.0,95,0.00,,,0.00,weatherlink.com 1.10,2013-07-22 05:41:00,
2013-07-21 22:56:00,53.8,53.0,29.86,SSW,201,6.0,20.0,96,0.00,,,0.00,weatherlink.com 1.10,2013-07-22 05:56:00,
2013-07-21 23:11:00,53.7,53.0,29.87,SSW,205,9.0,16.0,96,0.00,,,0.00,weatherlink.com 1.10,2013-07-22 06:11:00,
2013-07-21 23:26:00,53.5,52.0,29.87,SSW,198,10.0,16.0,96,0.00,,,0.00,weatherlink.com 1.10,2013-07-22 06:26:00,
2013-07-21 23:41:00,53.6,53.0,29.88,SSW,210,5.0,12.0,96,0.00,,,0.00,weatherlink.com 1.10,2013-07-22 06:41:00,
2013-07-21 23:56:00,53.6,53.0,29.88,South,184,5.0,12.0,96,0.00,,,0.00,weatherlink.com 1.10,2013-07-22 06:56:00,